西安 の空港の天気 - METARとTAF

西安咸陽国際空港 ( ZLXY / XIY ) - 中国 陝西省西安市
飛行場実況気象(Metar)
観測時間08/05 02:00 CST (08/04 18:00 UTC)
風向・風速不定 1m/s
視程10km以上
天気現象
なし
気温27℃
湿度70%
気圧1006hPa
METARZLXY 041800Z VRB01MPS CAVOK 27/21 Q1006 NOSIG
過去の天気等 Google飛行場航空写真 Wunderground天気予報

過去48時間のMETAR

飛行場予報(TAF)
発表時間: 8/04 23:03 CST (8/04 15:03 UTC)
予報対象時間: 5日2時 CST ~ 6日2時 CST
風向・風速東北東 3m/s
視程5000m
天気現象煙霧
なし
TAF ZLXY 041503Z 0418/0518 06003MPS 5000 HZ NSC TX34/0507Z TN25/0422Z